sensor_id;sensor_type;location;lat;lon;timestamp;pressure;altitude;pressure_sealevel;temperature;humidity
47430;BME280;33181;49.246;7.372;2022-12-18T00:02:05;99899.72;;;-6.50;72.00
47430;BME280;33181;49.246;7.372;2022-12-18T00:04:31;99887.81;;;-6.51;71.85
47430;BME280;33181;49.246;7.372;2022-12-18T00:06:57;99891.25;;;-6.45;71.78
47430;BME280;33181;49.246;7.372;2022-12-18T00:09:22;99892.09;;;-6.44;72.19
47430;BME280;33181;49.246;7.372;2022-12-18T00:11:48;99908.25;;;-6.47;71.77
47430;BME280;33181;49.246;7.372;2022-12-18T00:14:14;99900.53;;;-6.56;71.31
47430;BME280;33181;49.246;7.372;2022-12-18T00:16:44;99894.53;;;-6.63;71.72
47430;BME280;33181;49.246;7.372;2022-12-18T00:19:11;99901.38;;;-6.57;71.82
47430;BME280;33181;49.246;7.372;2022-12-18T00:21:37;99898.84;;;-6.56;71.73
47430;BME280;33181;49.246;7.372;2022-12-18T00:24:04;99886.91;;;-6.57;71.69
47430;BME280;33181;49.246;7.372;2022-12-18T00:26:32;99886.94;;;-6.52;71.74
47430;BME280;33181;49.246;7.372;2022-12-18T00:29:01;99901.41;;;-6.53;71.46
47430;BME280;33181;49.246;7.372;2022-12-18T00:31:27;99899.59;;;-6.66;71.64
47430;BME280;33181;49.246;7.372;2022-12-18T00:33:57;99885.97;;;-6.71;71.62
47430;BME280;33181;49.246;7.372;2022-12-18T00:36:31;99884.31;;;-6.63;71.60
47430;BME280;33181;49.246;7.372;2022-12-18T00:39:01;99887.72;;;-6.64;71.50
47430;BME280;33181;49.246;7.372;2022-12-18T00:41:27;99892.84;;;-6.61;72.07
47430;BME280;33181;49.246;7.372;2022-12-18T00:44:15;99894.53;;;-6.60;72.10
47430;BME280;33181;49.246;7.372;2022-12-18T00:46:42;99895.41;;;-6.56;72.01
47430;BME280;33181;49.246;7.372;2022-12-18T00:49:09;99889.50;;;-6.50;72.24
47430;BME280;33181;49.246;7.372;2022-12-18T00:51:35;99885.19;;;-6.59;72.17
47430;BME280;33181;49.246;7.372;2022-12-18T00:54:01;99880.88;;;-6.66;72.63
47430;BME280;33181;49.246;7.372;2022-12-18T00:56:27;99885.00;;;-6.87;73.93
47430;BME280;33181;49.246;7.372;2022-12-18T00:58:53;99888.25;;;-7.00;75.07
47430;BME280;33181;49.246;7.372;2022-12-18T01:01:19;99892.41;;;-7.13;75.75
47430;BME280;33181;49.246;7.372;2022-12-18T01:03:45;99892.44;;;-7.10;76.31
47430;BME280;33181;49.246;7.372;2022-12-18T01:06:14;99885.63;;;-7.11;76.50
47430;BME280;33181;49.246;7.372;2022-12-18T01:08:40;99888.28;;;-6.97;75.98
47430;BME280;33181;49.246;7.372;2022-12-18T01:11:20;99885.88;;;-6.83;75.86
47430;BME280;33181;49.246;7.372;2022-12-18T01:13:46;99896.94;;;-6.81;75.28
47430;BME280;33181;49.246;7.372;2022-12-18T01:16:14;99897.75;;;-6.85;75.04
47430;BME280;33181;49.246;7.372;2022-12-18T01:18:40;99896.13;;;-6.76;74.62
47430;BME280;33181;49.246;7.372;2022-12-18T01:21:13;99898.75;;;-6.68;74.00
47430;BME280;33181;49.246;7.372;2022-12-18T01:23:39;99900.50;;;-6.61;73.66
47430;BME280;33181;49.246;7.372;2022-12-18T01:26:14;99904.81;;;-6.54;73.44
47430;BME280;33181;49.246;7.372;2022-12-18T01:28:41;99903.13;;;-6.50;73.21
47430;BME280;33181;49.246;7.372;2022-12-18T01:33:50;99898.09;;;-6.38;72.92
47430;BME280;33181;49.246;7.372;2022-12-18T01:36:23;99883.63;;;-6.34;72.60
47430;BME280;33181;49.246;7.372;2022-12-18T01:38:51;99894.63;;;-6.47;72.73
47430;BME280;33181;49.246;7.372;2022-12-18T01:41:21;99906.53;;;-6.49;72.28
47430;BME280;33181;49.246;7.372;2022-12-18T01:43:54;99922.75;;;-6.47;72.37
47430;BME280;33181;49.246;7.372;2022-12-18T01:46:26;99922.72;;;-6.52;72.79
47430;BME280;33181;49.246;7.372;2022-12-18T01:49:00;99911.66;;;-6.48;72.83
47430;BME280;33181;49.246;7.372;2022-12-18T01:51:28;99912.53;;;-6.47;73.07
47430;BME280;33181;49.246;7.372;2022-12-18T01:53:55;99918.53;;;-6.42;73.08
47430;BME280;33181;49.246;7.372;2022-12-18T01:56:22;99916.84;;;-6.34;73.23
47430;BME280;33181;49.246;7.372;2022-12-18T01:59:00;99915.22;;;-6.26;73.21
47430;BME280;33181;49.246;7.372;2022-12-18T02:01:29;99905.03;;;-6.20;72.60
47430;BME280;33181;49.246;7.372;2022-12-18T02:03:56;99916.97;;;-6.20;72.35
47430;BME280;33181;49.246;7.372;2022-12-18T02:06:42;99914.16;;;-6.57;73.59
47430;BME280;33181;49.246;7.372;2022-12-18T02:09:18;99923.31;;;-6.87;75.47
47430;BME280;33181;49.246;7.372;2022-12-18T02:12:02;99906.13;;;-7.02;76.56
47430;BME280;33181;49.246;7.372;2022-12-18T02:15:00;99912.91;;;-7.04;76.87
47430;BME280;33181;49.246;7.372;2022-12-18T02:17:32;99913.78;;;-7.00;76.31
47430;BME280;33181;49.246;7.372;2022-12-18T02:20:36;99912.84;;;-7.10;77.78
47430;BME280;33181;49.246;7.372;2022-12-18T02:23:37;99916.38;;;-6.97;77.50
47430;BME280;33181;49.246;7.372;2022-12-18T02:26:20;99915.28;;;-7.24;77.88
47430;BME280;33181;49.246;7.372;2022-12-18T02:28:56;99909.47;;;-7.12;77.85
47430;BME280;33181;49.246;7.372;2022-12-18T02:31:29;99905.16;;;-7.17;77.72
47430;BME280;33181;49.246;7.372;2022-12-18T02:34:01;99901.81;;;-7.07;77.86
47430;BME280;33181;49.246;7.372;2022-12-18T02:36:28;99896.84;;;-6.93;77.61
47430;BME280;33181;49.246;7.372;2022-12-18T02:38:58;99899.50;;;-6.83;77.04
47430;BME280;33181;49.246;7.372;2022-12-18T02:41:25;99907.78;;;-7.07;76.62
47430;BME280;33181;49.246;7.372;2022-12-18T02:44:07;99900.00;;;-7.20;78.05
47430;BME280;33181;49.246;7.372;2022-12-18T02:46:44;99908.69;;;-7.00;77.30
47430;BME280;33181;49.246;7.372;2022-12-18T02:52:31;99898.44;;;-7.08;76.68
47430;BME280;33181;49.246;7.372;2022-12-18T03:03:14;99888.13;;;-7.17;76.69
47430;BME280;33181;49.246;7.372;2022-12-18T03:08:21;99893.00;;;-7.43;77.76
47430;BME280;33181;49.246;7.372;2022-12-18T03:11:07;99896.16;;;-7.65;78.97
47430;BME280;33181;49.246;7.372;2022-12-18T03:13:48;99903.84;;;-7.61;78.92
47430;BME280;33181;49.246;7.372;2022-12-18T03:16:24;99904.03;;;-7.42;78.35
47430;BME280;33181;49.246;7.372;2022-12-18T03:18:57;99900.47;;;-7.57;78.58
47430;BME280;33181;49.246;7.372;2022-12-18T03:21:32;99894.63;;;-7.48;78.66
47430;BME280;33181;49.246;7.372;2022-12-18T03:24:00;99901.31;;;-7.58;78.71
47430;BME280;33181;49.246;7.372;2022-12-18T03:26:28;99900.63;;;-7.41;78.54
47430;BME280;33181;49.246;7.372;2022-12-18T03:29:04;99910.69;;;-7.57;78.89
47430;BME280;33181;49.246;7.372;2022-12-18T03:31:35;99919.88;;;-7.70;79.45
47430;BME280;33181;49.246;7.372;2022-12-18T03:34:17;99922.50;;;-7.63;79.28
47430;BME280;33181;49.246;7.372;2022-12-18T03:36:45;99909.00;;;-7.56;78.83
47430;BME280;33181;49.246;7.372;2022-12-18T03:39:11;99901.28;;;-7.61;78.51
47430;BME280;33181;49.246;7.372;2022-12-18T03:42:09;99893.53;;;-7.70;78.94
47430;BME280;33181;49.246;7.372;2022-12-18T03:47:56;99902.25;;;-7.51;78.48
47430;BME280;33181;49.246;7.372;2022-12-18T03:50:56;99908.47;;;-7.26;77.75
47430;BME280;33181;49.246;7.372;2022-12-18T03:53:36;99909.38;;;-7.21;76.40
47430;BME280;33181;49.246;7.372;2022-12-18T03:56:06;99898.03;;;-7.49;76.97
47430;BME280;33181;49.246;7.372;2022-12-18T03:58:34;99896.84;;;-7.76;77.92
47430;BME280;33181;49.246;7.372;2022-12-18T04:01:05;99893.69;;;-7.56;78.08
47430;BME280;33181;49.246;7.372;2022-12-18T04:03:33;99898.78;;;-7.58;77.64
47430;BME280;33181;49.246;7.372;2022-12-18T04:06:00;99900.41;;;-7.63;77.97
47430;BME280;33181;49.246;7.372;2022-12-18T04:08:28;99897.81;;;-7.67;77.69
47430;BME280;33181;49.246;7.372;2022-12-18T04:10:54;99906.25;;;-7.73;77.93
47430;BME280;33181;49.246;7.372;2022-12-18T04:13:35;99896.78;;;-7.82;78.91
47430;BME280;33181;49.246;7.372;2022-12-18T04:16:02;99897.75;;;-7.74;78.53
47430;BME280;33181;49.246;7.372;2022-12-18T04:18:28;99902.69;;;-7.86;78.26
47430;BME280;33181;49.246;7.372;2022-12-18T04:20:54;99904.44;;;-7.85;78.66
47430;BME280;33181;49.246;7.372;2022-12-18T04:23:19;99905.34;;;-7.77;78.42
47430;BME280;33181;49.246;7.372;2022-12-18T04:25:47;99899.69;;;-7.51;77.41
47430;BME280;33181;49.246;7.372;2022-12-18T04:28:13;99898.91;;;-7.46;76.97
47430;BME280;33181;49.246;7.372;2022-12-18T04:30:39;99901.19;;;-7.72;76.87
47430;BME280;33181;49.246;7.372;2022-12-18T04:33:12;99900.53;;;-7.52;77.18
47430;BME280;33181;49.246;7.372;2022-12-18T04:35:41;99905.63;;;-7.51;76.50
47430;BME280;33181;49.246;7.372;2022-12-18T04:38:07;99905.72;;;-7.44;75.99
47430;BME280;33181;49.246;7.372;2022-12-18T04:40:37;99902.34;;;-7.43;76.25
47430;BME280;33181;49.246;7.372;2022-12-18T04:43:04;99890.09;;;-7.74;76.45
47430;BME280;33181;49.246;7.372;2022-12-18T04:45:31;99895.16;;;-7.78;76.71
47430;BME280;33181;49.246;7.372;2022-12-18T04:48:00;99890.13;;;-7.71;76.54
47430;BME280;33181;49.246;7.372;2022-12-18T04:50:26;99906.28;;;-7.70;75.85
47430;BME280;33181;49.246;7.372;2022-12-18T04:52:52;99898.53;;;-7.79;76.30
47430;BME280;33181;49.246;7.372;2022-12-18T04:55:18;99898.41;;;-7.88;76.59
47430;BME280;33181;49.246;7.372;2022-12-18T04:57:44;99901.88;;;-7.83;76.37
47430;BME280;33181;49.246;7.372;2022-12-18T05:00:11;99904.44;;;-7.83;76.18
47430;BME280;33181;49.246;7.372;2022-12-18T05:02:37;99908.53;;;-7.95;76.29
47430;BME280;33181;49.246;7.372;2022-12-18T05:05:03;99906.75;;;-8.03;76.85
47430;BME280;33181;49.246;7.372;2022-12-18T05:07:29;99912.56;;;-8.12;76.69
47430;BME280;33181;49.246;7.372;2022-12-18T05:09:55;99911.81;;;-8.05;77.17
47430;BME280;33181;49.246;7.372;2022-12-18T05:12:21;99912.44;;;-8.23;77.70
47430;BME280;33181;49.246;7.372;2022-12-18T05:14:46;99920.94;;;-8.22;78.20
47430;BME280;33181;49.246;7.372;2022-12-18T05:17:12;99924.28;;;-8.23;77.75
47430;BME280;33181;49.246;7.372;2022-12-18T05:19:38;99928.50;;;-8.27;77.75
47430;BME280;33181;49.246;7.372;2022-12-18T05:22:04;99923.56;;;-8.16;77.28
47430;BME280;33181;49.246;7.372;2022-12-18T05:24:30;99916.78;;;-8.16;77.48
47430;BME280;33181;49.246;7.372;2022-12-18T05:26:55;99923.69;;;-8.05;76.94
47430;BME280;33181;49.246;7.372;2022-12-18T05:29:21;99926.13;;;-8.16;77.45
47430;BME280;33181;49.246;7.372;2022-12-18T05:31:47;99925.31;;;-8.10;77.27
47430;BME280;33181;49.246;7.372;2022-12-18T05:34:13;99913.50;;;-8.07;76.72
47430;BME280;33181;49.246;7.372;2022-12-18T05:36:39;99922.97;;;-7.97;76.13
47430;BME280;33181;49.246;7.372;2022-12-18T05:39:04;99940.22;;;-8.41;77.88
47430;BME280;33181;49.246;7.372;2022-12-18T05:41:30;99941.97;;;-8.34;77.97
47430;BME280;33181;49.246;7.372;2022-12-18T05:43:56;99940.09;;;-8.49;78.57
47430;BME280;33181;49.246;7.372;2022-12-18T05:46:22;99942.16;;;-8.22;78.29
47430;BME280;33181;49.246;7.372;2022-12-18T05:48:48;99952.41;;;-8.19;77.51
47430;BME280;33181;49.246;7.372;2022-12-18T05:51:19;99953.00;;;-8.38;77.93
47430;BME280;33181;49.246;7.372;2022-12-18T05:53:45;99956.59;;;-8.21;77.89
47430;BME280;33181;49.246;7.372;2022-12-18T05:56:16;99964.31;;;-8.18;77.08
47430;BME280;33181;49.246;7.372;2022-12-18T05:58:42;99968.53;;;-8.17;76.79
47430;BME280;33181;49.246;7.372;2022-12-18T06:01:11;99972.69;;;-8.23;76.77
47430;BME280;33181;49.246;7.372;2022-12-18T06:03:38;99974.44;;;-8.21;77.06
47430;BME280;33181;49.246;7.372;2022-12-18T06:06:04;99975.13;;;-8.32;77.23
47430;BME280;33181;49.246;7.372;2022-12-18T06:08:30;99976.94;;;-8.25;77.11
47430;BME280;33181;49.246;7.372;2022-12-18T06:10:55;99984.97;;;-8.55;78.05
47430;BME280;33181;49.246;7.372;2022-12-18T06:13:22;99989.13;;;-8.62;78.77
47430;BME280;33181;49.246;7.372;2022-12-18T06:15:47;99971.50;;;-8.50;78.44
47430;BME280;33181;49.246;7.372;2022-12-18T06:18:13;99973.19;;;-8.50;78.52
47430;BME280;33181;49.246;7.372;2022-12-18T06:20:39;99964.03;;;-8.36;78.38
47430;BME280;33181;49.246;7.372;2022-12-18T06:23:07;99970.44;;;-8.63;79.12
47430;BME280;33181;49.246;7.372;2022-12-18T06:25:37;99963.66;;;-8.62;79.59
47430;BME280;33181;49.246;7.372;2022-12-18T06:28:03;99968.91;;;-8.51;78.66
47430;BME280;33181;49.246;7.372;2022-12-18T06:30:28;99962.88;;;-8.58;79.05
47430;BME280;33181;49.246;7.372;2022-12-18T06:32:54;99967.47;;;-8.89;80.94
47430;BME280;33181;49.246;7.372;2022-12-18T06:35:20;99965.50;;;-9.03;82.04
47430;BME280;33181;49.246;7.372;2022-12-18T06:37:46;99971.63;;;-8.94;83.02
47430;BME280;33181;49.246;7.372;2022-12-18T06:40:11;99970.25;;;-8.75;82.10
47430;BME280;33181;49.246;7.372;2022-12-18T06:42:37;99964.59;;;-8.57;81.49
47430;BME280;33181;49.246;7.372;2022-12-18T06:45:03;99977.59;;;-8.35;80.43
47430;BME280;33181;49.246;7.372;2022-12-18T06:47:29;99971.03;;;-8.21;79.79
47430;BME280;33181;49.246;7.372;2022-12-18T06:49:54;99978.91;;;-8.04;79.67
47430;BME280;33181;49.246;7.372;2022-12-18T06:52:20;99972.28;;;-7.93;78.46
47430;BME280;33181;49.246;7.372;2022-12-18T06:54:46;99971.56;;;-7.84;77.60
47430;BME280;33181;49.246;7.372;2022-12-18T06:57:12;99971.66;;;-7.78;77.63
47430;BME280;33181;49.246;7.372;2022-12-18T06:59:37;99978.41;;;-7.80;77.22
47430;BME280;33181;49.246;7.372;2022-12-18T07:02:03;99980.91;;;-7.85;76.25
47430;BME280;33181;49.246;7.372;2022-12-18T07:04:30;99971.69;;;-7.75;76.11
47430;BME280;33181;49.246;7.372;2022-12-18T07:06:56;99969.22;;;-7.67;75.63
47430;BME280;33181;49.246;7.372;2022-12-18T07:09:23;99976.06;;;-7.63;75.10
47430;BME280;33181;49.246;7.372;2022-12-18T07:11:48;99980.47;;;-8.14;74.52
47430;BME280;33181;49.246;7.372;2022-12-18T07:14:14;99977.31;;;-7.99;75.09
47430;BME280;33181;49.246;7.372;2022-12-18T07:16:40;99979.84;;;-7.98;74.92
47430;BME280;33181;49.246;7.372;2022-12-18T07:19:06;99983.13;;;-8.09;74.74
47430;BME280;33181;49.246;7.372;2022-12-18T07:21:32;99976.38;;;-8.06;74.58
47430;BME280;33181;49.246;7.372;2022-12-18T07:23:57;99991.78;;;-8.56;75.55
47430;BME280;33181;49.246;7.372;2022-12-18T07:26:23;99995.16;;;-8.55;77.08
47430;BME280;33181;49.246;7.372;2022-12-18T07:28:49;99999.66;;;-8.41;76.29
47430;BME280;33181;49.246;7.372;2022-12-18T07:31:19;100001.06;;;-8.58;76.71
47430;BME280;33181;49.246;7.372;2022-12-18T07:33:46;100008.53;;;-8.67;76.85
47430;BME280;33181;49.246;7.372;2022-12-18T07:36:13;100001.00;;;-8.61;76.75
47430;BME280;33181;49.246;7.372;2022-12-18T07:38:39;100008.59;;;-9.11;78.65
47430;BME280;33181;49.246;7.372;2022-12-18T07:41:11;100022.00;;;-8.76;77.99
47430;BME280;33181;49.246;7.372;2022-12-18T07:43:38;100023.69;;;-8.75;77.92
47430;BME280;33181;49.246;7.372;2022-12-18T07:46:05;100027.47;;;-8.53;77.64
47430;BME280;33181;49.246;7.372;2022-12-18T07:48:31;100036.06;;;-8.46;77.21
47430;BME280;33181;49.246;7.372;2022-12-18T07:51:05;100036.28;;;-8.31;76.91
47430;BME280;33181;49.246;7.372;2022-12-18T07:53:33;100042.22;;;-8.32;76.30
47430;BME280;33181;49.246;7.372;2022-12-18T07:56:02;100038.47;;;-8.55;77.02
47430;BME280;33181;49.246;7.372;2022-12-18T07:58:29;100032.69;;;-8.45;76.30
47430;BME280;33181;49.246;7.372;2022-12-18T08:01:06;100031.78;;;-8.50;76.29
47430;BME280;33181;49.246;7.372;2022-12-18T08:03:32;100021.69;;;-8.44;76.73
47430;BME280;33181;49.246;7.372;2022-12-18T08:06:04;100013.53;;;-8.20;76.29
47430;BME280;33181;49.246;7.372;2022-12-18T08:08:31;100017.28;;;-7.97;75.32
47430;BME280;33181;49.246;7.372;2022-12-18T08:10:57;100020.81;;;-7.85;74.96
47430;BME280;33181;49.246;7.372;2022-12-18T08:13:24;100012.53;;;-7.72;74.93
47430;BME280;33181;49.246;7.372;2022-12-18T08:16:05;100007.72;;;-8.11;74.61
47430;BME280;33181;49.246;7.372;2022-12-18T08:18:33;99999.13;;;-8.18;75.05
47430;BME280;33181;49.246;7.372;2022-12-18T08:23:37;99991.50;;;-8.71;77.44
47430;BME280;33181;49.246;7.372;2022-12-18T08:26:03;99989.16;;;-8.59;77.63
47430;BME280;33181;49.246;7.372;2022-12-18T08:28:28;99993.41;;;-8.58;78.12
47430;BME280;33181;49.246;7.372;2022-12-18T08:30:54;99984.44;;;-8.34;77.53
47430;BME280;33181;49.246;7.372;2022-12-18T08:33:20;99987.13;;;-8.25;77.07
47430;BME280;33181;49.246;7.372;2022-12-18T08:35:46;99981.25;;;-8.21;77.19
47430;BME280;33181;49.246;7.372;2022-12-18T08:38:11;99982.41;;;-7.98;76.65
47430;BME280;33181;49.246;7.372;2022-12-18T08:40:37;99984.78;;;-8.13;77.11
47430;BME280;33181;49.246;7.372;2022-12-18T08:43:03;99992.28;;;-8.21;77.96
47430;BME280;33181;49.246;7.372;2022-12-18T08:45:47;99990.59;;;-8.20;77.87
47430;BME280;33181;49.246;7.372;2022-12-18T08:48:13;99985.56;;;-8.16;78.48
47430;BME280;33181;49.246;7.372;2022-12-18T08:50:39;99991.41;;;-8.23;78.99
47430;BME280;33181;49.246;7.372;2022-12-18T08:53:05;99993.19;;;-8.17;79.08
47430;BME280;33181;49.246;7.372;2022-12-18T08:55:31;100000.63;;;-8.31;80.36
47430;BME280;33181;49.246;7.372;2022-12-18T08:57:57;99999.03;;;-8.24;81.40
47430;BME280;33181;49.246;7.372;2022-12-18T09:00:22;99998.31;;;-8.14;81.79
47430;BME280;33181;49.246;7.372;2022-12-18T09:02:48;99995.41;;;-7.81;80.96
47430;BME280;33181;49.246;7.372;2022-12-18T09:05:14;100005.44;;;-7.92;80.13
47430;BME280;33181;49.246;7.372;2022-12-18T09:07:40;100002.22;;;-7.81;79.51
47430;BME280;33181;49.246;7.372;2022-12-18T09:10:06;100011.56;;;-7.80;79.24
47430;BME280;33181;49.246;7.372;2022-12-18T09:12:32;100003.28;;;-7.64;79.22
47430;BME280;33181;49.246;7.372;2022-12-18T09:14:58;100007.81;;;-7.41;78.14
47430;BME280;33181;49.246;7.372;2022-12-18T09:17:23;100013.69;;;-7.47;78.49
47430;BME280;33181;49.246;7.372;2022-12-18T09:19:49;100024.84;;;-7.40;79.27
47430;BME280;33181;49.246;7.372;2022-12-18T09:22:15;100025.75;;;-7.35;79.24
47430;BME280;33181;49.246;7.372;2022-12-18T09:24:41;100041.09;;;-7.34;78.87
47430;BME280;33181;49.246;7.372;2022-12-18T09:27:06;100056.28;;;-7.41;79.82
47430;BME280;33181;49.246;7.372;2022-12-18T09:29:32;100062.50;;;-7.19;79.79
47430;BME280;33181;49.246;7.372;2022-12-18T09:31:58;100059.25;;;-7.08;79.34
47430;BME280;33181;49.246;7.372;2022-12-18T09:34:24;100051.00;;;-6.85;78.50
47430;BME280;33181;49.246;7.372;2022-12-18T09:36:50;100046.06;;;-6.65;78.59
47430;BME280;33181;49.246;7.372;2022-12-18T09:39:16;100043.66;;;-6.50;77.58
47430;BME280;33181;49.246;7.372;2022-12-18T09:41:52;100041.16;;;-6.48;77.81
47430;BME280;33181;49.246;7.372;2022-12-18T09:44:41;100044.66;;;-6.36;77.92
47430;BME280;33181;49.246;7.372;2022-12-18T09:47:27;100032.03;;;-6.16;77.10
47430;BME280;33181;49.246;7.372;2022-12-18T09:50:03;100043.16;;;-6.09;77.74
47430;BME280;33181;49.246;7.372;2022-12-18T09:52:39;100047.53;;;-5.88;77.19
47430;BME280;33181;49.246;7.372;2022-12-18T09:55:50;100043.34;;;-5.80;77.33
47430;BME280;33181;49.246;7.372;2022-12-18T09:58:44;100039.00;;;-5.92;77.24
47430;BME280;33181;49.246;7.372;2022-12-18T10:01:20;100033.03;;;-5.98;78.37
47430;BME280;33181;49.246;7.372;2022-12-18T10:03:47;100024.34;;;-6.20;78.91
47430;BME280;33181;49.246;7.372;2022-12-18T10:06:59;100023.47;;;-6.19;79.90
47430;BME280;33181;49.246;7.372;2022-12-18T10:09:49;100022.72;;;-6.06;80.01
47430;BME280;33181;49.246;7.372;2022-12-18T10:12:43;100018.56;;;-5.87;80.33
47430;BME280;33181;49.246;7.372;2022-12-18T10:22:33;100012.75;;;-5.59;80.38
47430;BME280;33181;49.246;7.372;2022-12-18T10:27:18;100003.19;;;-5.96;82.75
47430;BME280;33181;49.246;7.372;2022-12-18T10:29:47;100004.88;;;-6.01;83.23
47430;BME280;33181;49.246;7.372;2022-12-18T10:32:25;99999.84;;;-5.83;82.52
47430;BME280;33181;49.246;7.372;2022-12-18T10:34:55;100002.44;;;-5.71;82.05
47430;BME280;33181;49.246;7.372;2022-12-18T10:37:25;99992.28;;;-5.57;81.89
47430;BME280;33181;49.246;7.372;2022-12-18T10:40:15;100005.09;;;-5.54;81.88
47430;BME280;33181;49.246;7.372;2022-12-18T10:42:41;100004.22;;;-5.64;82.25
47430;BME280;33181;49.246;7.372;2022-12-18T10:45:16;99996.53;;;-5.61;81.90
47430;BME280;33181;49.246;7.372;2022-12-18T10:47:49;99995.75;;;-5.44;81.49
47430;BME280;33181;49.246;7.372;2022-12-18T10:52:59;99983.88;;;-5.25;81.42
47430;BME280;33181;49.246;7.372;2022-12-18T10:55:38;99976.19;;;-5.28;81.76
47430;BME280;33181;49.246;7.372;2022-12-18T10:58:35;99970.31;;;-4.94;81.69
47430;BME280;33181;49.246;7.372;2022-12-18T11:01:16;99974.59;;;-4.74;81.08
47430;BME280;33181;49.246;7.372;2022-12-18T11:04:08;99976.25;;;-5.02;81.85
47430;BME280;33181;49.246;7.372;2022-12-18T11:07:07;99970.28;;;-4.98;81.61
47430;BME280;33181;49.246;7.372;2022-12-18T11:09:36;99974.53;;;-5.11;83.13
47430;BME280;33181;49.246;7.372;2022-12-18T11:14:44;99969.44;;;-5.03;83.46
47430;BME280;33181;49.246;7.372;2022-12-18T11:17:32;99975.41;;;-4.89;83.08
47430;BME280;33181;49.246;7.372;2022-12-18T11:20:07;99957.47;;;-4.92;82.36
47430;BME280;33181;49.246;7.372;2022-12-18T11:23:02;99961.78;;;-4.88;83.27
47430;BME280;33181;49.246;7.372;2022-12-18T11:25:30;99961.69;;;-5.26;83.96
47430;BME280;33181;49.246;7.372;2022-12-18T11:30:34;99948.06;;;-5.15;84.70
47430;BME280;33181;49.246;7.372;2022-12-18T11:33:19;99948.06;;;-5.05;83.96
47430;BME280;33181;49.246;7.372;2022-12-18T11:35:53;99948.09;;;-4.99;84.62
47430;BME280;33181;49.246;7.372;2022-12-18T11:38:39;99948.06;;;-5.05;84.65
47430;BME280;33181;49.246;7.372;2022-12-18T11:41:32;99936.94;;;-5.29;85.81
47430;BME280;33181;49.246;7.372;2022-12-18T11:44:31;99934.38;;;-5.21;85.63
47430;BME280;33181;49.246;7.372;2022-12-18T11:47:27;99940.38;;;-5.05;85.52
47430;BME280;33181;49.246;7.372;2022-12-18T11:49:58;99936.13;;;-5.06;85.31
47430;BME280;33181;49.246;7.372;2022-12-18T11:52:38;99939.56;;;-4.94;85.21
47430;BME280;33181;49.246;7.372;2022-12-18T11:55:16;99926.72;;;-4.95;84.32
47430;BME280;33181;49.246;7.372;2022-12-18T12:01:18;99931.84;;;-5.09;84.43
47430;BME280;33181;49.246;7.372;2022-12-18T12:16:28;99928.47;;;-4.47;84.19
47430;BME280;33181;49.246;7.372;2022-12-18T12:33:27;99899.44;;;-4.69;85.04
47430;BME280;33181;49.246;7.372;2022-12-18T12:36:34;99890.00;;;-4.67;84.51
47430;BME280;33181;49.246;7.372;2022-12-18T12:39:07;99893.44;;;-4.68;84.78
47430;BME280;33181;49.246;7.372;2022-12-18T12:41:35;99887.47;;;-4.73;84.75
47430;BME280;33181;49.246;7.372;2022-12-18T12:44:32;99890.00;;;-4.40;84.45
47430;BME280;33181;49.246;7.372;2022-12-18T12:47:30;99886.50;;;-4.16;84.30
47430;BME280;33181;49.246;7.372;2022-12-18T12:49:52;99877.13;;;-4.16;82.80
47430;BME280;33181;49.246;7.372;2022-12-18T12:54:54;99867.75;;;-4.22;83.56
47430;BME280;33181;49.246;7.372;2022-12-18T13:00:19;99857.44;;;-4.06;83.24
47430;BME280;33181;49.246;7.372;2022-12-18T13:03:27;99860.94;;;-4.36;84.15
47430;BME280;33181;49.246;7.372;2022-12-18T13:06:00;99863.44;;;-4.23;84.16
47430;BME280;33181;49.246;7.372;2022-12-18T13:08:31;99862.59;;;-4.26;84.28
47430;BME280;33181;49.246;7.372;2022-12-18T13:10:59;99848.91;;;-4.21;84.36
47430;BME280;33181;49.246;7.372;2022-12-18T13:13:55;99850.56;;;-4.01;83.47
47430;BME280;33181;49.246;7.372;2022-12-18T13:16:25;99850.53;;;-3.95;83.03
47430;BME280;33181;49.246;7.372;2022-12-18T13:18:55;99853.09;;;-3.92;83.31
47430;BME280;33181;49.246;7.372;2022-12-18T13:21:32;99843.66;;;-3.84;82.79
47430;BME280;33181;49.246;7.372;2022-12-18T13:24:23;99845.31;;;-3.74;82.28
47430;BME280;33181;49.246;7.372;2022-12-18T13:26:49;99846.97;;;-3.66;82.94
47430;BME280;33181;49.246;7.372;2022-12-18T13:29:43;99845.13;;;-3.44;83.42
47430;BME280;33181;49.246;7.372;2022-12-18T13:32:25;99845.91;;;-3.32;81.87
47430;BME280;33181;49.246;7.372;2022-12-18T13:37:55;99840.69;;;-3.18;80.94
47430;BME280;33181;49.246;7.372;2022-12-18T13:48:27;99842.50;;;-3.32;82.05
47430;BME280;33181;49.246;7.372;2022-12-18T13:51:00;99848.50;;;-3.38;81.37
47430;BME280;33181;49.246;7.372;2022-12-18T13:54:17;99846.03;;;-3.50;82.06
47430;BME280;33181;49.246;7.372;2022-12-18T13:56:22;99845.94;;;-3.38;82.75
47430;BME280;33181;49.246;7.372;2022-12-18T13:59:23;99840.78;;;-3.30;82.38
47430;BME280;33181;49.246;7.372;2022-12-18T14:01:56;99842.44;;;-3.23;82.01
47430;BME280;33181;49.246;7.372;2022-12-18T14:04:27;99832.28;;;-3.40;82.00
47430;BME280;33181;49.246;7.372;2022-12-18T14:09:31;99828.00;;;-3.41;82.29
47430;BME280;33181;49.246;7.372;2022-12-18T14:12:00;99823.53;;;-3.16;81.60
47430;BME280;33181;49.246;7.372;2022-12-18T14:14:48;99820.13;;;-3.16;81.82
47430;BME280;33181;49.246;7.372;2022-12-18T14:17:15;99817.59;;;-3.22;82.58
47430;BME280;33181;49.246;7.372;2022-12-18T14:19:44;99834.63;;;-3.12;81.81
47430;BME280;33181;49.246;7.372;2022-12-18T14:22:26;99838.16;;;-3.21;82.27
47430;BME280;33181;49.246;7.372;2022-12-18T14:25:23;99831.16;;;-3.02;82.38
47430;BME280;33181;49.246;7.372;2022-12-18T14:28:12;99826.78;;;-2.94;81.27
47430;BME280;33181;49.246;7.372;2022-12-18T14:30:41;99829.31;;;-2.89;81.21
47430;BME280;33181;49.246;7.372;2022-12-18T14:38:39;99830.84;;;-2.68;80.45
47430;BME280;33181;49.246;7.372;2022-12-18T14:41:11;99825.63;;;-2.62;79.64
47430;BME280;33181;49.246;7.372;2022-12-18T14:43:41;99828.22;;;-2.62;79.97
47430;BME280;33181;49.246;7.372;2022-12-18T14:49:34;99835.81;;;-2.50;79.50
47430;BME280;33181;49.246;7.372;2022-12-18T14:52:06;99829.16;;;-2.71;79.92
47430;BME280;33181;49.246;7.372;2022-12-18T14:54:33;99825.03;;;-2.89;81.33
47430;BME280;33181;49.246;7.372;2022-12-18T14:57:06;99824.28;;;-3.01;81.92
47430;BME280;33181;49.246;7.372;2022-12-18T14:59:32;99822.59;;;-3.04;82.20
47430;BME280;33181;49.246;7.372;2022-12-18T15:02:04;99827.59;;;-2.89;82.11